createdAt,value
2018-11-13T00:02:03.352Z,98316.63
2018-11-13T00:04:32.840Z,98313.38
2018-11-13T00:07:02.298Z,98318.98
2018-11-13T00:09:32.140Z,98325.62
2018-11-13T00:12:20.619Z,98321.93
2018-11-13T00:15:09.287Z,98331.29
2018-11-13T00:17:39.068Z,98343.55
2018-11-13T00:20:10.718Z,98337.31
2018-11-13T00:22:59.460Z,98333.30
2018-11-13T00:25:29.522Z,98333.30
2018-11-13T00:27:59.021Z,98339.98
2018-11-13T00:30:28.446Z,98338.65
2018-11-13T00:32:57.888Z,98341.89
2018-11-13T00:35:46.954Z,98351.86
2018-11-13T00:38:16.427Z,98352.10
2018-11-13T00:41:04.881Z,98341.44
2018-11-13T00:43:34.637Z,98341.44
2018-11-13T00:46:22.862Z,98347.94
2018-11-13T00:48:53.029Z,98347.94
2018-11-13T00:51:41.689Z,98368.06
2018-11-13T00:54:30.737Z,98359.26
2018-11-13T00:57:19.568Z,98352.06
2018-11-13T01:00:08.345Z,98352.06
2018-11-13T01:02:38.078Z,98365.67
2018-11-13T01:05:26.830Z,98341.25
2018-11-13T01:07:56.224Z,98341.25
2018-11-13T01:10:45.296Z,98374.32
2018-11-13T01:13:34.124Z,98374.32
2018-11-13T01:16:22.592Z,98373.75
2018-11-13T01:19:11.065Z,98387.76
2018-11-13T01:21:59.551Z,98387.76
2018-11-13T01:24:30.041Z,98391.77
2018-11-13T01:26:59.763Z,98389.27
2018-11-13T01:30:06.867Z,98385.30
2018-11-13T01:32:38.831Z,98380.13
2018-11-13T01:35:09.905Z,98383.24
2018-11-13T01:37:39.783Z,98379.80
2018-11-13T01:40:34.557Z,98387.40
2018-11-13T01:43:04.289Z,98382.34
2018-11-13T01:45:33.722Z,98381.92
2018-11-13T01:48:03.544Z,98381.43
2018-11-13T01:50:52.139Z,98380.55
2018-11-13T01:53:21.561Z,98379.50
2018-11-13T01:55:51.299Z,98374.61
2018-11-13T01:58:39.661Z,98366.55
2018-11-13T02:01:09.098Z,98368.55
2018-11-13T02:03:38.535Z,98366.60
2018-11-13T02:06:08.065Z,98377.42
2018-11-13T03:48:01.743Z,98512.85
2018-11-13T03:50:31.173Z,98525.39
2018-11-13T03:53:19.846Z,98527.34
2018-11-13T03:55:49.618Z,98524.73
2018-11-13T03:58:19.470Z,98527.46
2018-11-13T04:00:49.227Z,98540.02
2018-11-13T04:03:37.447Z,98520.42
2018-11-13T04:06:25.674Z,98534.25
2018-11-13T04:08:55.414Z,98547.53
2018-11-13T04:11:24.833Z,98533.91
2018-11-13T04:14:13.325Z,98538.66
2018-11-13T04:16:43.085Z,98556.87
2018-11-13T04:19:31.590Z,98562.66
2018-11-13T04:22:03.017Z,98562.55
2018-11-13T04:24:51.422Z,98564.64
2018-11-13T04:27:20.879Z,98556.05
2018-11-13T04:29:50.652Z,98567.80
2018-11-13T04:32:38.766Z,98577.22
2018-11-13T04:35:09.463Z,98578.60
2018-11-13T04:37:39.599Z,98585.19
2018-11-13T04:40:28.774Z,98573.09
2018-11-13T04:42:58.212Z,98585.49
2018-11-13T04:45:28.284Z,98573.84
2018-11-13T04:48:16.651Z,98582.04
2018-11-13T04:50:46.438Z,98579.75
2018-11-13T04:53:34.639Z,98578.89
2018-11-13T04:56:04.362Z,98589.13
2018-11-13T04:58:34.753Z,98576.89
2018-11-13T05:01:04.852Z,98587.07
2018-11-13T05:03:53.956Z,98588.72
2018-11-13T05:06:42.437Z,98597.90
2018-11-13T05:09:12.147Z,98592.16
2018-11-13T05:11:42.546Z,98600.19
2018-11-13T05:14:12.506Z,98608.04
2018-11-13T05:16:42.643Z,98609.66
2018-11-13T05:19:12.715Z,98605.13
2018-11-13T05:21:42.405Z,98607.73
2018-11-13T05:24:30.852Z,98613.92
2018-11-13T05:27:19.185Z,98611.25
2018-11-13T05:29:49.295Z,98612.91
2018-11-13T05:32:38.314Z,98623.45
2018-11-13T05:35:09.995Z,98627.13
2018-11-13T05:37:40.292Z,98629.72
2018-11-13T05:40:30.058Z,98637.67
2018-11-13T05:42:59.794Z,98637.02
2018-11-13T05:45:29.558Z,98636.99
2018-11-13T05:48:17.710Z,98640.64
2018-11-13T05:50:47.652Z,98640.99
2018-11-13T05:53:36.370Z,98653.31
2018-11-13T05:56:25.056Z,98653.99
2018-11-13T05:58:55.530Z,98667.53
2018-11-13T06:01:25.991Z,98675.17
2018-11-13T06:03:55.473Z,98676.70
2018-11-13T06:06:43.913Z,98681.47
2018-11-13T06:09:32.554Z,98691.05
2018-11-13T06:12:02.676Z,98698.94
2018-11-13T06:14:51.094Z,98703.85
2018-11-13T06:17:20.820Z,98707.05
2018-11-13T06:19:50.625Z,98721.02
2018-11-13T06:22:39.509Z,98723.91
2018-11-13T06:25:11.037Z,98730.05
2018-11-13T06:27:42.382Z,98743.87
2018-11-13T06:30:31.823Z,98739.03
2018-11-13T06:33:01.249Z,98731.81
2018-11-13T06:35:30.675Z,98734.84
2018-11-13T06:38:00.661Z,98729.19
2018-11-13T06:55:48.389Z,98780.04
2018-11-13T06:58:18.764Z,98777.12
2018-11-13T07:00:48.907Z,98794.45
2018-11-13T07:03:18.770Z,98796.06
2018-11-13T07:05:49.138Z,98807.71
2018-11-13T07:08:23.174Z,98812.76
2018-11-13T07:10:52.756Z,98818.20
2018-11-13T07:13:22.080Z,98812.28
2018-11-13T07:15:51.813Z,98813.39
2018-11-13T07:18:21.298Z,98807.47
2018-11-13T07:20:50.691Z,98800.97
2018-11-13T07:23:20.445Z,98801.55
2018-11-13T07:25:49.919Z,98801.44
2018-11-13T07:28:20.030Z,98805.73
2018-11-13T07:30:49.756Z,98820.17
2018-11-13T07:33:37.944Z,98819.58
2018-11-13T07:36:26.292Z,98825.30
2018-11-13T07:38:55.723Z,98835.37
2018-11-13T07:41:25.159Z,98839.78
2018-11-13T07:43:54.579Z,98845.34
2018-11-13T07:46:24.007Z,98855.95
2018-11-13T07:48:53.816Z,98862.95
2018-11-13T07:51:23.884Z,98867.36
2018-11-13T07:53:53.648Z,98878.05
2018-11-13T07:56:23.554Z,98877.38
2018-11-13T07:58:53.922Z,98875.33
2018-11-13T08:01:23.644Z,98883.39
2018-11-13T08:03:53.788Z,98878.91
2018-11-13T08:06:23.780Z,98888.19
2018-11-13T08:09:12.358Z,98900.49
2018-11-13T08:12:01.037Z,98905.92
2018-11-13T08:14:30.768Z,98912.42
2018-11-13T08:17:00.191Z,98918.00
2018-11-13T08:19:29.670Z,98923.87
2018-11-13T08:21:59.164Z,98924.34
2018-11-13T08:24:29.129Z,98929.87
2018-11-13T08:26:58.944Z,98926.42
2018-11-13T08:29:28.922Z,98922.92
2018-11-13T08:31:58.284Z,98924.42
2018-11-13T08:34:28.124Z,98925.41
2018-11-13T08:36:57.625Z,98929.09
2018-11-13T08:39:27.407Z,98920.97
2018-11-13T08:42:15.513Z,98917.77
2018-11-13T08:44:45.227Z,98922.69
2018-11-13T08:47:14.650Z,98915.70
2018-11-13T08:49:44.085Z,98903.08
2018-11-13T08:52:13.816Z,98901.64
2018-11-13T08:54:43.590Z,98900.14
2018-11-13T08:57:31.986Z,98897.38
2018-11-13T09:00:20.153Z,98885.66
2018-11-13T09:02:50.133Z,98910.08
2018-11-13T09:05:19.613Z,98904.53
2018-11-13T09:08:07.766Z,98905.31
2018-11-13T09:10:38.407Z,98900.97
2018-11-13T09:13:07.908Z,98912.50
2018-11-13T09:15:37.629Z,98916.20
2018-11-13T09:18:07.904Z,98903.26
2018-11-13T09:20:37.797Z,98912.18
2018-11-13T09:23:25.978Z,98922.61
2018-11-13T09:25:55.496Z,98920.40
2018-11-13T09:28:25.545Z,98929.88
2018-11-13T09:30:55.368Z,98923.83
2018-11-13T09:33:24.528Z,98935.05
2018-11-13T09:35:54.447Z,98947.69
2018-11-13T09:38:24.740Z,98946.97
2018-11-13T09:41:12.921Z,98950.45
2018-11-13T09:43:43.024Z,98937.06
2018-11-13T09:46:13.252Z,98925.30
2018-11-13T09:48:43.436Z,98917.59
2018-11-13T09:51:32.122Z,98936.46
2018-11-13T09:54:01.570Z,98961.50
2018-11-13T09:56:31.526Z,98961.45
2018-11-13T09:59:19.892Z,98977.27
2018-11-13T10:01:50.302Z,98978.95
2018-11-13T10:04:39.437Z,98992.70
2018-11-13T10:07:08.189Z,98980.02
2018-11-13T10:09:37.609Z,98973.77
2018-11-13T10:12:25.947Z,98973.70
2018-11-13T10:14:55.377Z,98965.72
2018-11-13T10:17:44.109Z,98968.64
2018-11-13T10:20:32.308Z,98972.14
2018-11-13T10:23:20.777Z,98979.19
2018-11-13T10:25:50.265Z,98987.55
2018-11-13T10:28:20.253Z,98995.06
2018-11-13T10:31:08.723Z,98991.44
2018-11-13T10:33:38.883Z,98987.02
2018-11-13T10:36:08.391Z,98988.67
2018-11-13T10:38:38.109Z,98992.44
2018-11-13T10:41:08.621Z,99005.48
2018-11-13T10:43:56.831Z,99004.03
2018-11-13T10:46:45.045Z,98995.94
2018-11-13T10:49:14.594Z,98990.72
2018-11-13T10:52:03.391Z,98984.00
2018-11-13T10:54:32.853Z,98997.27
2018-11-13T10:57:03.036Z,99012.55
2018-11-13T10:59:32.561Z,99025.41
2018-11-13T11:02:40.010Z,99025.44
2018-11-13T11:05:09.438Z,99019.64
2018-11-13T11:07:39.725Z,99025.42
2018-11-13T11:10:10.042Z,99038.82
2018-11-13T11:12:40.550Z,99031.13
2018-11-13T11:15:10.465Z,99019.52
2018-11-13T11:17:40.789Z,99019.63
2018-11-13T11:20:12.190Z,99026.28
2018-11-13T11:23:00.505Z,99035.72
2018-11-13T11:25:49.166Z,99047.02
2018-11-13T11:28:18.596Z,99040.73
2018-11-13T11:30:48.467Z,99026.83
2018-11-13T11:33:37.202Z,99041.36
2018-11-13T11:36:06.871Z,99044.21
2018-11-13T11:38:56.008Z,99052.34
2018-11-13T11:41:44.286Z,99070.76
2018-11-13T11:44:14.503Z,99059.18
2018-11-13T11:46:43.867Z,99066.77
2018-11-13T11:49:14.184Z,99061.20
2018-11-13T11:51:44.507Z,99046.09
2018-11-13T11:54:13.980Z,99049.75
2018-11-13T11:56:43.695Z,99059.14
2018-11-13T11:59:13.266Z,99055.66
2018-11-13T12:01:42.703Z,99056.70
2018-11-13T12:04:31.499Z,99051.20
2018-11-13T12:07:02.547Z,99060.33
2018-11-13T12:09:32.463Z,99076.81
2018-11-13T12:12:21.917Z,99081.63
2018-11-13T12:14:51.989Z,99075.62
2018-11-13T12:17:40.138Z,99077.32
2018-11-13T12:20:11.629Z,99071.47
2018-11-13T12:22:41.842Z,99078.34
2018-11-13T12:25:13.286Z,99077.70
2018-11-13T12:27:43.311Z,99086.80
2018-11-13T12:30:31.771Z,99091.09
2018-11-13T12:33:02.155Z,99087.16
2018-11-13T12:35:31.913Z,99089.92
2018-11-13T12:38:01.762Z,99084.58
2018-11-13T12:40:31.657Z,99093.50
2018-11-13T12:43:01.181Z,99085.14
2018-11-13T12:45:30.886Z,99094.34
2018-11-13T12:48:00.418Z,99099.36
2018-11-13T12:51:07.604Z,99108.17
2018-11-13T12:53:56.053Z,99103.52
2018-11-13T12:56:25.938Z,99109.52
2018-11-13T12:58:55.373Z,99103.09
2018-11-13T13:01:43.801Z,99106.30
2018-11-13T13:04:13.846Z,99108.00
2018-11-13T13:06:44.348Z,99111.00
2018-11-13T13:09:13.888Z,99116.71
2018-11-13T13:12:02.277Z,99117.13
2018-11-13T13:14:32.064Z,99113.48
2018-11-13T13:17:21.660Z,99122.53
2018-11-13T13:20:29.390Z,99129.47
2018-11-13T13:23:17.855Z,99130.73
2018-11-13T13:25:47.285Z,99133.81
2018-11-13T13:28:35.789Z,99126.67
2018-11-13T13:31:05.965Z,99126.67
2018-11-13T13:33:35.507Z,99125.34
2018-11-13T13:36:24.220Z,99124.44
2018-11-13T13:38:54.327Z,99132.15
2018-11-13T13:41:42.708Z,99140.19
2018-11-13T13:44:12.565Z,99136.45
2018-11-13T13:47:01.232Z,99136.34
2018-11-13T13:49:49.671Z,99140.33
2018-11-13T13:52:19.482Z,99143.14
2018-11-13T13:54:49.049Z,99143.89
2018-11-13T13:57:18.793Z,99147.76
2018-11-13T14:00:08.299Z,99148.88
2018-11-13T14:02:56.793Z,99152.24
2018-11-13T14:05:45.688Z,99152.24
2018-11-13T14:08:34.129Z,99148.83
2018-11-13T14:11:03.578Z,99148.83
2018-11-13T14:13:33.030Z,99156.40
2018-11-13T14:16:21.172Z,99159.28
2018-11-13T14:18:51.598Z,99161.67
2018-11-13T14:21:21.152Z,99157.97
2018-11-13T14:23:50.652Z,99159.78
2018-11-13T14:26:20.062Z,99159.73
2018-11-13T14:28:49.527Z,99161.72
2018-11-13T14:31:19.013Z,99161.61
2018-11-13T14:33:48.752Z,99162.49
2018-11-13T14:36:37.104Z,99164.59
2018-11-13T14:39:09.724Z,99157.14
2018-11-13T14:41:39.439Z,99164.09
2018-11-13T14:44:08.968Z,99160.60
2018-11-13T14:46:57.565Z,99164.19
2018-11-13T14:49:27.118Z,99163.14
2018-11-13T14:51:56.844Z,99168.17
2018-11-13T14:54:26.729Z,99161.20
2018-11-13T14:57:15.262Z,99173.20
2018-11-13T14:59:45.085Z,99165.83
2018-11-13T15:02:14.567Z,99170.95
2018-11-13T15:04:44.016Z,99178.46
2018-11-13T15:07:14.165Z,99183.86
2018-11-13T15:09:43.701Z,99190.64
2018-11-13T15:12:31.846Z,99187.70
2018-11-13T15:15:01.452Z,99195.22
2018-11-13T15:17:30.852Z,99196.66
2018-11-13T15:20:19.101Z,99201.54
2018-11-13T15:23:07.345Z,99204.70
2018-11-13T15:25:55.463Z,99212.30
2018-11-13T15:28:44.261Z,99217.29
2018-11-13T15:31:32.741Z,99221.30
2018-11-13T15:34:02.543Z,99223.42
2018-11-13T15:36:51.048Z,99226.95
2018-11-13T15:39:21.309Z,99228.92
2018-11-13T15:42:09.789Z,99237.56
2018-11-13T15:44:58.511Z,99235.27
2018-11-13T15:47:28.822Z,99232.44
2018-11-13T15:50:35.679Z,99234.31
2018-11-13T15:53:23.934Z,99234.38
2018-11-13T15:56:12.362Z,99224.33
2018-11-13T15:59:00.841Z,99223.07
2018-11-13T16:01:49.268Z,99233.47
2018-11-13T16:04:18.738Z,99232.12
2018-11-13T16:06:48.949Z,99234.05
2018-11-13T16:09:37.305Z,99230.83
2018-11-13T16:12:06.990Z,99229.13
2018-11-13T16:14:55.777Z,99232.56
2018-11-13T16:17:26.496Z,99229.53
2018-11-13T16:19:55.982Z,99236.66
2018-11-13T16:22:25.431Z,99236.42
2018-11-13T16:24:55.195Z,99239.08
2018-11-13T16:27:25.080Z,99242.98
2018-11-13T16:29:55.413Z,99252.27
2018-11-13T16:32:25.096Z,99243.45
2018-11-13T16:35:14.793Z,99251.65
2018-11-13T16:37:45.240Z,99250.02
2018-11-13T16:40:24.918Z,99247.91
2018-11-13T16:42:54.663Z,99260.38
2018-11-13T16:45:25.206Z,99263.47
2018-11-13T16:47:55.767Z,99267.66
2018-11-13T16:50:44.253Z,99270.46
2018-11-13T16:53:13.697Z,99267.34
2018-11-13T16:56:01.816Z,99265.45
2018-11-13T16:58:50.492Z,99267.25
2018-11-13T17:01:39.479Z,99278.44
2018-11-13T17:04:09.029Z,99273.17
2018-11-13T17:06:57.980Z,99281.73
2018-11-13T17:09:46.907Z,99287.80
2018-11-13T17:12:16.709Z,99294.75
2018-11-13T17:15:05.211Z,99295.23
2018-11-13T17:17:34.821Z,99298.52
2018-11-13T17:20:04.437Z,99300.98
2018-11-13T17:22:34.246Z,99302.27
2018-11-13T17:25:03.703Z,99304.91
2018-11-13T17:27:33.222Z,99296.33
2018-11-13T17:30:02.811Z,99297.71
2018-11-13T17:32:32.199Z,99305.44
2018-11-13T17:35:01.669Z,99307.05
2018-11-13T17:37:31.101Z,99298.46
2018-11-13T17:40:00.876Z,99305.66
2018-11-13T17:42:50.077Z,99307.35
2018-11-13T17:45:38.172Z,99309.56
2018-11-13T17:48:08.690Z,99315.11
2018-11-13T17:50:39.357Z,99319.31
2018-11-13T17:53:28.242Z,99325.66
2018-11-13T17:56:16.208Z,99326.97
2018-11-13T17:59:04.368Z,99321.20
2018-11-13T18:01:34.161Z,99323.66
2018-11-13T18:04:04.038Z,99320.06
2018-11-13T18:06:52.795Z,99323.59
2018-11-13T18:09:22.550Z,99326.95
2018-11-13T18:11:51.988Z,99331.42
2018-11-13T18:14:29.336Z,99335.55
2018-11-13T18:16:59.080Z,99338.91
2018-11-13T18:19:47.506Z,99339.98
2018-11-13T18:22:17.333Z,99350.78
2018-11-13T18:25:05.722Z,99346.41
2018-11-13T18:27:53.928Z,99348.62
2018-11-13T18:30:42.316Z,99352.77
2018-11-13T18:33:12.074Z,99346.52
2018-11-13T18:36:00.328Z,99351.20
2018-11-13T18:38:30.402Z,99350.67
2018-11-13T18:40:59.710Z,99350.49
2018-11-13T18:43:29.183Z,99351.92
2018-11-13T18:45:58.638Z,99359.96
2018-11-13T18:48:28.078Z,99362.42
2018-11-13T18:50:57.794Z,99353.32
2018-11-13T18:53:27.615Z,99352.58
2018-11-13T18:55:57.510Z,99357.02
2018-11-13T18:58:28.058Z,99359.22
2018-11-13T19:00:58.302Z,99359.81
2018-11-13T19:03:28.114Z,99359.48
2018-11-13T19:05:57.618Z,99355.73
2018-11-13T19:08:27.410Z,99358.23
2018-11-13T19:10:57.288Z,99361.23
2018-11-13T19:13:28.046Z,99361.86
2018-11-13T19:15:59.498Z,99363.99
2018-11-13T19:18:48.524Z,99364.57
2018-11-13T19:21:17.881Z,99363.98
2018-11-13T19:23:47.870Z,99362.86
2018-11-13T19:26:17.953Z,99361.78
2018-11-13T19:28:47.756Z,99362.86
2018-11-13T19:31:17.229Z,99360.94
2018-11-13T19:33:47.052Z,99359.23
2018-11-13T19:36:17.081Z,99360.89
2018-11-13T19:38:46.629Z,99360.31
2018-11-13T19:41:16.420Z,99364.45
2018-11-13T19:43:46.243Z,99364.73
2018-11-13T19:46:16.363Z,99370.20
2018-11-13T19:48:45.997Z,99374.67
2018-11-13T19:51:15.798Z,99371.38
2018-11-13T19:53:45.619Z,99371.67
2018-11-13T19:56:15.795Z,99373.59
2018-11-13T19:58:45.235Z,99371.67
2018-11-13T20:01:14.700Z,99380.48
2018-11-13T20:03:44.262Z,99380.81
2018-11-13T20:06:13.963Z,99384.94
2018-11-13T20:08:43.978Z,99378.63
2018-11-13T20:11:13.925Z,99388.20
2018-11-13T20:13:44.343Z,99385.73
2018-11-13T20:16:13.905Z,99386.82
2018-11-13T20:18:43.387Z,99391.86
2018-11-13T20:21:13.783Z,99390.20
2018-11-13T20:23:43.254Z,99391.50
2018-11-13T20:26:13.095Z,99388.23
2018-11-13T20:28:42.711Z,99389.03
2018-11-13T20:31:12.215Z,99391.78
2018-11-13T20:33:42.016Z,99397.38
2018-11-13T20:36:11.484Z,99399.16
2018-11-13T20:38:40.912Z,99403.02
2018-11-13T20:41:10.722Z,99403.59
2018-11-13T20:43:40.569Z,99406.37
2018-11-13T20:46:10.426Z,99405.84
2018-11-13T20:48:40.646Z,99408.06
2018-11-13T20:51:10.176Z,99411.09
2018-11-13T20:53:39.650Z,99413.02
2018-11-13T20:56:09.488Z,99412.20
2018-11-13T20:58:39.215Z,99418.81
2018-11-13T21:01:08.980Z,99419.38
2018-11-13T21:03:38.759Z,99420.20
2018-11-13T21:06:08.524Z,99413.59
2018-11-13T21:08:38.303Z,99418.27
2018-11-13T21:11:08.439Z,99420.48
2018-11-13T21:13:38.208Z,99419.38
2018-11-13T21:16:07.748Z,99414.08
2018-11-13T21:18:37.743Z,99418.20
2018-11-13T21:21:07.184Z,99418.75
2018-11-13T21:23:36.775Z,99420.11
2018-11-13T21:26:06.520Z,99420.41
2018-11-13T21:28:35.958Z,99423.41
2018-11-13T21:31:05.722Z,99413.22
2018-11-13T21:33:35.513Z,99418.45
2018-11-13T21:36:05.339Z,99418.44
2018-11-13T21:38:35.099Z,99411.87
2018-11-13T21:41:05.436Z,99411.87
2018-11-13T21:43:35.096Z,99410.48
2018-11-13T21:46:04.429Z,99418.14
2018-11-13T21:48:52.886Z,99417.87
2018-11-13T21:51:22.350Z,99415.66
2018-11-13T21:53:51.791Z,99418.71
2018-11-13T21:56:21.223Z,99419.77
2018-11-13T21:58:50.979Z,99416.77
2018-11-13T22:01:20.839Z,99420.34
2018-11-13T22:04:08.902Z,99416.20
2018-11-13T22:06:38.611Z,99410.41
2018-11-13T22:09:10.638Z,99415.91
2018-11-13T22:11:38.487Z,99416.16
2018-11-13T22:14:08.183Z,99415.61
2018-11-13T22:16:38.012Z,99414.23
2018-11-13T22:19:07.657Z,99410.94
2018-11-13T22:21:37.382Z,99415.83
2018-11-13T22:24:07.153Z,99414.73
2018-11-13T22:26:36.674Z,99418.53
2018-11-13T22:29:25.414Z,99419.06
2018-11-13T22:31:54.843Z,99421.53
2018-11-13T22:34:24.533Z,99417.96
2018-11-13T22:36:53.969Z,99415.78
2018-11-13T22:39:23.395Z,99415.53
2018-11-13T22:41:53.412Z,99408.11
2018-11-13T22:44:23.247Z,99411.94
2018-11-13T22:46:52.648Z,99410.81
2018-11-13T22:49:22.082Z,99412.21
2018-11-13T22:51:51.527Z,99407.78
2018-11-13T22:54:21.241Z,99420.13
2018-11-13T22:56:50.695Z,99411.34
2018-11-13T22:59:20.119Z,99413.81
2018-11-13T23:01:49.680Z,99408.31
2018-11-13T23:04:20.010Z,99417.89
2018-11-13T23:06:49.876Z,99420.16
2018-11-13T23:09:37.997Z,99418.42
2018-11-13T23:12:07.890Z,99421.98
2018-11-13T23:14:56.344Z,99413.23
2018-11-13T23:17:45.248Z,99411.30
2018-11-13T23:20:19.058Z,99411.56
2018-11-13T23:23:07.585Z,99406.59
2018-11-13T23:25:37.728Z,99404.16
2018-11-13T23:28:07.682Z,99408.25
2018-11-13T23:30:37.048Z,99404.66
2018-11-13T23:33:07.468Z,99400.55
2018-11-13T23:35:36.981Z,99397.80
2018-11-13T23:38:25.193Z,99401.66
2018-11-13T23:40:55.148Z,99400.55
2018-11-13T23:43:24.841Z,99396.11
2018-11-13T23:45:54.628Z,99394.74
2018-11-13T23:48:24.454Z,99393.91
2018-11-13T23:50:53.942Z,99399.64
2018-11-13T23:53:24.237Z,99399.32
2018-11-13T23:55:54.058Z,99408.65
2018-11-13T23:58:23.535Z,99405.05
